sensor_id;sensor_type;location;lat;lon;timestamp;pressure;altitude;pressure_sealevel;temperature;humidity
41260;BME280;26993;48.958;9.330;2022-09-09T00:00:31;98088.16;;;14.03;97.26
41260;BME280;26993;48.958;9.330;2022-09-09T00:03:25;98088.63;;;13.82;97.66
41260;BME280;26993;48.958;9.330;2022-09-09T00:06:17;98088.75;;;13.74;98.48
41260;BME280;26993;48.958;9.330;2022-09-09T00:09:11;98082.66;;;13.78;98.18
41260;BME280;26993;48.958;9.330;2022-09-09T00:12:02;98077.38;;;13.83;97.95
41260;BME280;26993;48.958;9.330;2022-09-09T00:14:55;98087.09;;;13.71;98.69
41260;BME280;26993;48.958;9.330;2022-09-09T00:17:46;98087.00;;;13.77;98.72
41260;BME280;26993;48.958;9.330;2022-09-09T00:20:39;98082.66;;;13.78;98.18
41260;BME280;26993;48.958;9.330;2022-09-09T00:23:33;98086.81;;;13.85;97.44
41260;BME280;26993;48.958;9.330;2022-09-09T00:26:29;98084.06;;;13.93;97.15
41260;BME280;26993;48.958;9.330;2022-09-09T00:29:26;98075.41;;;13.94;96.72
41260;BME280;26993;48.958;9.330;2022-09-09T00:32:17;98073.47;;;14.04;96.69
41260;BME280;26993;48.958;9.330;2022-09-09T00:35:20;98074.56;;;13.93;97.04
41260;BME280;26993;48.958;9.330;2022-09-09T00:38:13;98075.50;;;13.91;97.16
41260;BME280;26993;48.958;9.330;2022-09-09T00:41:04;98076.03;;;13.63;99.32
41260;BME280;26993;48.958;9.330;2022-09-09T00:43:57;98078.78;;;13.55;99.57
41260;BME280;26993;48.958;9.330;2022-09-09T00:46:56;98077.81;;;13.61;99.67
41260;BME280;26993;48.958;9.330;2022-09-09T00:49:56;98082.34;;;13.51;99.50
41260;BME280;26993;48.958;9.330;2022-09-09T00:52:57;98080.53;;;13.55;100.00
41260;BME280;26993;48.958;9.330;2022-09-09T00:55:48;98077.97;;;13.53;100.00
41260;BME280;26993;48.958;9.330;2022-09-09T00:58:36;98078.78;;;13.55;100.00
41260;BME280;26993;48.958;9.330;2022-09-09T01:01:23;98080.53;;;13.53;100.00
41260;BME280;26993;48.958;9.330;2022-09-09T01:04:13;98081.13;;;13.68;99.62
41260;BME280;26993;48.958;9.330;2022-09-09T01:07:09;98085.75;;;13.52;100.00
41260;BME280;26993;48.958;9.330;2022-09-09T01:10:00;98096.06;;;13.55;100.00
41260;BME280;26993;48.958;9.330;2022-09-09T01:12:51;98094.84;;;13.73;99.37
41260;BME280;26993;48.958;9.330;2022-09-09T01:15:40;98086.94;;;13.79;98.99
41260;BME280;26993;48.958;9.330;2022-09-09T01:18:29;98083.09;;;13.56;99.54
41260;BME280;26993;48.958;9.330;2022-09-09T01:21:27;98078.66;;;13.61;99.17
41260;BME280;26993;48.958;9.330;2022-09-09T01:24:22;98078.53;;;13.68;99.28
41260;BME280;26993;48.958;9.330;2022-09-09T01:27:15;98082.91;;;13.64;100.00
41260;BME280;26993;48.958;9.330;2022-09-09T01:30:05;98078.75;;;13.58;100.00
41260;BME280;26993;48.958;9.330;2022-09-09T01:32:56;98078.66;;;13.61;100.00
41260;BME280;26993;48.958;9.330;2022-09-09T01:35:49;98087.47;;;13.53;100.00
41260;BME280;26993;48.958;9.330;2022-09-09T01:38:40;98083.00;;;13.61;100.00
41260;BME280;26993;48.958;9.330;2022-09-09T01:41:27;98089.63;;;13.74;100.00
41260;BME280;26993;48.958;9.330;2022-09-09T01:44:15;98089.75;;;13.68;100.00
41260;BME280;26993;48.958;9.330;2022-09-09T01:47:04;98093.31;;;13.62;100.00
41260;BME280;26993;48.958;9.330;2022-09-09T01:49:50;98093.13;;;13.72;100.00
41260;BME280;26993;48.958;9.330;2022-09-09T01:52:37;98098.13;;;13.81;100.00
41260;BME280;26993;48.958;9.330;2022-09-09T01:55:29;98102.31;;;13.88;100.00
41260;BME280;26993;48.958;9.330;2022-09-09T01:58:26;98101.41;;;13.89;99.73
41260;BME280;26993;48.958;9.330;2022-09-09T02:01:24;98093.78;;;13.82;100.00
41260;BME280;26993;48.958;9.330;2022-09-09T02:04:21;98092.22;;;13.74;100.00
41260;BME280;26993;48.958;9.330;2022-09-09T02:07:17;98098.19;;;13.78;100.00
41260;BME280;26993;48.958;9.330;2022-09-09T02:10:10;98087.00;;;13.77;100.00
41260;BME280;26993;48.958;9.330;2022-09-09T02:13:03;98091.47;;;13.68;100.00
41260;BME280;26993;48.958;9.330;2022-09-09T02:15:56;98093.16;;;13.70;100.00
41260;BME280;26993;48.958;9.330;2022-09-09T02:18:50;98083.66;;;13.71;100.00
41260;BME280;26993;48.958;9.330;2022-09-09T02:21:38;98084.78;;;13.57;100.00
41260;BME280;26993;48.958;9.330;2022-09-09T02:24:26;98066.38;;;13.73;100.00
41260;BME280;26993;48.958;9.330;2022-09-09T02:27:14;98064.44;;;13.83;98.67
41260;BME280;26993;48.958;9.330;2022-09-09T02:30:03;98070.91;;;13.61;98.99
41260;BME280;26993;48.958;9.330;2022-09-09T02:32:52;98080.41;;;13.59;99.48
41260;BME280;26993;48.958;9.330;2022-09-09T02:35:44;98095.72;;;13.70;98.60
41260;BME280;26993;48.958;9.330;2022-09-09T02:38:35;98093.94;;;13.75;98.43
41260;BME280;26993;48.958;9.330;2022-09-09T02:41:25;98094.47;;;13.47;99.47
41260;BME280;26993;48.958;9.330;2022-09-09T02:44:14;98081.44;;;13.52;97.95
41260;BME280;26993;48.958;9.330;2022-09-09T02:47:14;98083.88;;;13.60;95.54
41260;BME280;26993;48.958;9.330;2022-09-09T02:50:09;98090.22;;;13.43;96.83
41260;BME280;26993;48.958;9.330;2022-09-09T02:53:06;98086.69;;;13.49;97.47
41260;BME280;26993;48.958;9.330;2022-09-09T02:55:58;98094.47;;;13.47;97.95
41260;BME280;26993;48.958;9.330;2022-09-09T02:58:49;98089.38;;;13.43;97.42
41260;BME280;26993;48.958;9.330;2022-09-09T03:01:37;98086.72;;;13.47;95.84
41260;BME280;26993;48.958;9.330;2022-09-09T03:04:25;98083.88;;;13.60;94.42
41260;BME280;26993;48.958;9.330;2022-09-09T03:07:11;98081.25;;;13.61;94.35
41260;BME280;26993;48.958;9.330;2022-09-09T03:09:59;98066.72;;;13.54;93.60
41260;BME280;26993;48.958;9.330;2022-09-09T03:12:46;98065.75;;;13.13;95.52
41260;BME280;26993;48.958;9.330;2022-09-09T03:15:33;98064.59;;;12.81;98.23
41260;BME280;26993;48.958;9.330;2022-09-09T03:18:20;98071.50;;;12.79;98.25
41260;BME280;26993;48.958;9.330;2022-09-09T03:21:07;98075.22;;;12.64;99.49
41260;BME280;26993;48.958;9.330;2022-09-09T03:23:53;98077.31;;;12.38;100.00
41260;BME280;26993;48.958;9.330;2022-09-09T03:26:42;98068.66;;;12.41;100.00
41260;BME280;26993;48.958;9.330;2022-09-09T03:29:29;98063.72;;;12.26;100.00
41260;BME280;26993;48.958;9.330;2022-09-09T03:32:16;98058.63;;;12.21;100.00
41260;BME280;26993;48.958;9.330;2022-09-09T03:35:04;98065.59;;;12.16;100.00
41260;BME280;26993;48.958;9.330;2022-09-09T03:37:51;98070.16;;;11.97;100.00
41260;BME280;26993;48.958;9.330;2022-09-09T03:40:37;98077.72;;;12.09;100.00
41260;BME280;26993;48.958;9.330;2022-09-09T03:43:26;98088.69;;;12.25;100.00
41260;BME280;26993;48.958;9.330;2022-09-09T03:46:13;98090.06;;;12.49;100.00
41260;BME280;26993;48.958;9.330;2022-09-09T03:48:59;98095.63;;;12.23;100.00
41260;BME280;26993;48.958;9.330;2022-09-09T03:51:47;98092.25;;;12.16;100.00
41260;BME280;26993;48.958;9.330;2022-09-09T03:54:34;98098.31;;;12.14;100.00
41260;BME280;26993;48.958;9.330;2022-09-09T03:57:20;98092.31;;;12.13;100.00
41260;BME280;26993;48.958;9.330;2022-09-09T04:00:10;98086.03;;;12.30;100.00
41260;BME280;26993;48.958;9.330;2022-09-09T04:02:57;98084.13;;;12.43;100.00
41260;BME280;26993;48.958;9.330;2022-09-09T04:05:43;98085.88;;;12.42;100.00
41260;BME280;26993;48.958;9.330;2022-09-09T04:08:30;98084.06;;;12.47;100.00
41260;BME280;26993;48.958;9.330;2022-09-09T04:11:18;98084.03;;;12.50;100.00
41260;BME280;26993;48.958;9.330;2022-09-09T04:14:05;98084.69;;;12.65;100.00
41260;BME280;26993;48.958;9.330;2022-09-09T04:16:53;98076.91;;;12.65;100.00
41260;BME280;26993;48.958;9.330;2022-09-09T04:19:42;98074.00;;;12.83;100.00
41260;BME280;26993;48.958;9.330;2022-09-09T04:22:29;98078.09;;;12.98;99.81
41260;BME280;26993;48.958;9.330;2022-09-09T04:25:15;98079.06;;;12.90;99.63
41260;BME280;26993;48.958;9.330;2022-09-09T04:28:02;98080.75;;;12.94;99.79
41260;BME280;26993;48.958;9.330;2022-09-09T04:30:49;98091.19;;;12.88;99.53
41260;BME280;26993;48.958;9.330;2022-09-09T04:33:37;98091.34;;;12.78;100.00
41260;BME280;26993;48.958;9.330;2022-09-09T04:36:24;98090.16;;;12.98;99.55
41260;BME280;26993;48.958;9.330;2022-09-09T04:39:11;98085.84;;;12.98;97.96
41260;BME280;26993;48.958;9.330;2022-09-09T04:41:57;98085.81;;;13.00;98.27
41260;BME280;26993;48.958;9.330;2022-09-09T04:44:44;98081.22;;;13.16;97.46
41260;BME280;26993;48.958;9.330;2022-09-09T04:47:31;98087.72;;;13.40;95.12
41260;BME280;26993;48.958;9.330;2022-09-09T04:50:19;98091.03;;;13.47;94.22
41260;BME280;26993;48.958;9.330;2022-09-09T04:53:06;98090.44;;;13.31;95.21
41260;BME280;26993;48.958;9.330;2022-09-09T04:56:01;98106.88;;;13.28;96.09
41260;BME280;26993;48.958;9.330;2022-09-09T04:58:47;98104.38;;;13.24;97.11
41260;BME280;26993;48.958;9.330;2022-09-09T05:01:34;98113.88;;;13.22;97.86
41260;BME280;26993;48.958;9.330;2022-09-09T05:04:21;98113.03;;;13.21;98.49
41260;BME280;26993;48.958;9.330;2022-09-09T05:07:09;98100.91;;;13.25;99.11
41260;BME280;26993;48.958;9.330;2022-09-09T05:09:56;98109.09;;;13.00;100.00
41260;BME280;26993;48.958;9.330;2022-09-09T05:12:42;98109.59;;;13.21;100.00
41260;BME280;26993;48.958;9.330;2022-09-09T05:15:29;98120.19;;;13.05;100.00
41260;BME280;26993;48.958;9.330;2022-09-09T05:18:16;98123.72;;;12.99;100.00
41260;BME280;26993;48.958;9.330;2022-09-09T05:21:03;98121.88;;;13.09;100.00
41260;BME280;26993;48.958;9.330;2022-09-09T05:23:51;98121.00;;;13.09;100.00
41260;BME280;26993;48.958;9.330;2022-09-09T05:26:38;98115.84;;;13.07;100.00
41260;BME280;26993;48.958;9.330;2022-09-09T05:29:25;98119.66;;;13.36;99.27
41260;BME280;26993;48.958;9.330;2022-09-09T05:32:12;98122.19;;;13.41;98.81
41260;BME280;26993;48.958;9.330;2022-09-09T05:35:00;98135.19;;;13.36;98.66
41260;BME280;26993;48.958;9.330;2022-09-09T05:37:47;98127.03;;;13.58;97.37
41260;BME280;26993;48.958;9.330;2022-09-09T05:40:35;98130.22;;;13.72;96.68
41260;BME280;26993;48.958;9.330;2022-09-09T05:43:22;98128.16;;;13.90;95.50
41260;BME280;26993;48.958;9.330;2022-09-09T05:46:12;98127.09;;;13.99;95.76
41260;BME280;26993;48.958;9.330;2022-09-09T05:48:59;98123.59;;;14.03;96.07
41260;BME280;26993;48.958;9.330;2022-09-09T05:51:45;98123.78;;;13.93;96.97
41260;BME280;26993;48.958;9.330;2022-09-09T05:54:32;98130.78;;;13.88;97.94
41260;BME280;26993;48.958;9.330;2022-09-09T05:57:20;98129.00;;;13.90;98.22
41260;BME280;26993;48.958;9.330;2022-09-09T06:00:08;98133.94;;;14.03;98.21
41260;BME280;26993;48.958;9.330;2022-09-09T06:02:55;98134.72;;;14.06;98.63
41260;BME280;26993;48.958;9.330;2022-09-09T06:05:41;98132.28;;;14.79;95.65
41260;BME280;26993;48.958;9.330;2022-09-09T06:08:28;98126.75;;;15.29;88.56
41260;BME280;26993;48.958;9.330;2022-09-09T06:11:17;98128.78;;;15.49;87.77
41260;BME280;26993;48.958;9.330;2022-09-09T06:14:07;98128.94;;;15.44;88.06
41260;BME280;26993;48.958;9.330;2022-09-09T06:16:53;98129.41;;;15.59;85.63
41260;BME280;26993;48.958;9.330;2022-09-09T06:19:42;98130.94;;;15.66;86.68
41260;BME280;26993;48.958;9.330;2022-09-09T06:22:28;98128.53;;;15.91;87.38
41260;BME280;26993;48.958;9.330;2022-09-09T06:25:15;98128.81;;;16.12;87.11
41260;BME280;26993;48.958;9.330;2022-09-09T06:28:03;98125.44;;;16.08;84.79
41260;BME280;26993;48.958;9.330;2022-09-09T06:30:57;98120.00;;;16.16;85.67
41260;BME280;26993;48.958;9.330;2022-09-09T06:33:44;98129.31;;;16.25;84.76
41260;BME280;26993;48.958;9.330;2022-09-09T06:36:32;98129.19;;;16.29;85.33
41260;BME280;26993;48.958;9.330;2022-09-09T06:39:19;98134.78;;;16.15;85.96
41260;BME280;26993;48.958;9.330;2022-09-09T06:42:07;98137.63;;;16.06;85.85
41260;BME280;26993;48.958;9.330;2022-09-09T06:44:54;98141.34;;;16.27;83.70
41260;BME280;26993;48.958;9.330;2022-09-09T06:47:42;98139.44;;;16.04;84.41
41260;BME280;26993;48.958;9.330;2022-09-09T06:50:28;98130.13;;;15.97;85.89
41260;BME280;26993;48.958;9.330;2022-09-09T06:53:16;98129.19;;;16.28;84.21
41260;BME280;26993;48.958;9.330;2022-09-09T06:56:19;98140.53;;;16.27;84.04
41260;BME280;26993;48.958;9.330;2022-09-09T06:59:11;98136.22;;;16.26;84.83
41260;BME280;26993;48.958;9.330;2022-09-09T07:01:58;98142.97;;;16.31;83.98
41260;BME280;26993;48.958;9.330;2022-09-09T07:04:47;98138.19;;;16.46;83.81
41260;BME280;26993;48.958;9.330;2022-09-09T07:07:36;98142.16;;;16.58;84.08
41260;BME280;26993;48.958;9.330;2022-09-09T07:10:23;98151.13;;;16.76;82.92
41260;BME280;26993;48.958;9.330;2022-09-09T07:13:10;98148.44;;;16.79;81.79
41260;BME280;26993;48.958;9.330;2022-09-09T07:16:03;98141.00;;;16.96;81.45
41260;BME280;26993;48.958;9.330;2022-09-09T07:18:50;98135.41;;;17.34;79.79
41260;BME280;26993;48.958;9.330;2022-09-09T07:21:38;98135.75;;;17.49;80.89
41260;BME280;26993;48.958;9.330;2022-09-09T07:24:26;98138.97;;;17.57;78.50
41260;BME280;26993;48.958;9.330;2022-09-09T07:27:15;98137.19;;;17.57;78.75
41260;BME280;26993;48.958;9.330;2022-09-09T07:30:03;98141.69;;;17.77;78.78
41260;BME280;26993;48.958;9.330;2022-09-09T07:32:50;98133.38;;;17.91;78.98
41260;BME280;26993;48.958;9.330;2022-09-09T07:35:37;98146.06;;;18.02;78.14
41260;BME280;26993;48.958;9.330;2022-09-09T07:38:25;98141.47;;;18.09;76.86
41260;BME280;26993;48.958;9.330;2022-09-09T07:41:14;98154.69;;;18.04;76.85
41260;BME280;26993;48.958;9.330;2022-09-09T07:44:06;98145.25;;;18.24;77.82
41260;BME280;26993;48.958;9.330;2022-09-09T07:46:53;98148.41;;;18.32;77.13
41260;BME280;26993;48.958;9.330;2022-09-09T07:49:40;98152.00;;;18.30;75.07
41260;BME280;26993;48.958;9.330;2022-09-09T07:52:27;98143.38;;;18.28;76.66
41260;BME280;26993;48.958;9.330;2022-09-09T07:55:15;98142.41;;;18.30;75.48
41260;BME280;26993;48.958;9.330;2022-09-09T07:58:01;98138.00;;;18.32;75.87
41260;BME280;26993;48.958;9.330;2022-09-09T08:00:48;98144.94;;;18.32;76.70
41260;BME280;26993;48.958;9.330;2022-09-09T08:03:35;98144.78;;;18.36;76.94
41260;BME280;26993;48.958;9.330;2022-09-09T08:06:21;98147.50;;;18.57;75.44
41260;BME280;26993;48.958;9.330;2022-09-09T08:09:10;98156.22;;;18.56;75.18
41260;BME280;26993;48.958;9.330;2022-09-09T08:11:58;98161.44;;;18.56;75.47
41260;BME280;26993;48.958;9.330;2022-09-09T08:14:46;98154.34;;;18.60;75.57
41260;BME280;26993;48.958;9.330;2022-09-09T08:17:33;98158.16;;;18.73;75.43
41260;BME280;26993;48.958;9.330;2022-09-09T08:20:20;98153.44;;;19.05;74.54
41260;BME280;26993;48.958;9.330;2022-09-09T08:23:08;98147.81;;;19.14;74.61
41260;BME280;26993;48.958;9.330;2022-09-09T08:25:55;98153.13;;;19.33;73.79
41260;BME280;26993;48.958;9.330;2022-09-09T08:28:44;98154.97;;;19.52;73.13
41260;BME280;26993;48.958;9.330;2022-09-09T08:31:31;98159.59;;;19.45;73.90
41260;BME280;26993;48.958;9.330;2022-09-09T08:34:22;98154.09;;;19.31;72.19
41260;BME280;26993;48.958;9.330;2022-09-09T08:37:12;98143.84;;;19.26;72.61
41260;BME280;26993;48.958;9.330;2022-09-09T08:39:58;98152.34;;;19.31;71.55
41260;BME280;26993;48.958;9.330;2022-09-09T08:42:49;98171.44;;;19.54;72.58
41260;BME280;26993;48.958;9.330;2022-09-09T08:45:48;98167.28;;;19.90;72.17
41260;BME280;26993;48.958;9.330;2022-09-09T08:48:52;98162.38;;;20.41;69.53
41260;BME280;26993;48.958;9.330;2022-09-09T08:51:41;98163.59;;;20.53;68.13
41260;BME280;26993;48.958;9.330;2022-09-09T08:54:33;98156.28;;;20.79;67.96
41260;BME280;26993;48.958;9.330;2022-09-09T08:57:24;98148.06;;;21.04;66.54
41260;BME280;26993;48.958;9.330;2022-09-09T09:00:13;98151.91;;;20.97;67.31
41260;BME280;26993;48.958;9.330;2022-09-09T09:03:06;98142.56;;;21.10;64.24
41260;BME280;26993;48.958;9.330;2022-09-09T09:06:03;98140.13;;;20.88;66.14
41260;BME280;26993;48.958;9.330;2022-09-09T09:08:55;98149.38;;;20.95;66.84
41260;BME280;26993;48.958;9.330;2022-09-09T09:11:48;98146.56;;;21.17;66.42
41260;BME280;26993;48.958;9.330;2022-09-09T09:14:36;98152.44;;;21.40;67.22
41260;BME280;26993;48.958;9.330;2022-09-09T09:17:26;98143.19;;;21.84;64.01
41260;BME280;26993;48.958;9.330;2022-09-09T09:20:21;98147.28;;;21.90;63.65
41260;BME280;26993;48.958;9.330;2022-09-09T09:23:17;98138.81;;;21.84;64.06
41260;BME280;26993;48.958;9.330;2022-09-09T09:26:09;98134.53;;;21.66;64.46
41260;BME280;26993;48.958;9.330;2022-09-09T09:28:58;98128.84;;;21.91;63.19
41260;BME280;26993;48.958;9.330;2022-09-09T09:31:47;98127.22;;;21.89;64.54
41260;BME280;26993;48.958;9.330;2022-09-09T09:34:37;98130.31;;;21.79;64.28
41260;BME280;26993;48.958;9.330;2022-09-09T09:37:30;98122.56;;;21.60;64.56
41260;BME280;26993;48.958;9.330;2022-09-09T09:40:20;98122.88;;;21.54;65.67
41260;BME280;26993;48.958;9.330;2022-09-09T09:43:18;98129.53;;;21.44;63.89
41260;BME280;26993;48.958;9.330;2022-09-09T09:46:19;98124.13;;;21.47;65.31
41260;BME280;26993;48.958;9.330;2022-09-09T09:49:09;98127.38;;;21.34;63.48
41260;BME280;26993;48.958;9.330;2022-09-09T09:52:00;98116.19;;;21.31;64.49
41260;BME280;26993;48.958;9.330;2022-09-09T09:54:49;98116.66;;;21.21;63.88
41260;BME280;26993;48.958;9.330;2022-09-09T09:57:36;98109.13;;;21.33;64.33
41260;BME280;26993;48.958;9.330;2022-09-09T10:00:25;98096.41;;;21.76;64.28
41260;BME280;26993;48.958;9.330;2022-09-09T10:03:20;98087.66;;;22.09;59.22
41260;BME280;26993;48.958;9.330;2022-09-09T10:06:08;98079.03;;;22.23;59.03
41260;BME280;26993;48.958;9.330;2022-09-09T10:08:54;98082.16;;;22.30;60.11
41260;BME280;26993;48.958;9.330;2022-09-09T10:11:46;98086.75;;;22.42;58.26
41260;BME280;26993;48.958;9.330;2022-09-09T10:14:42;98085.47;;;22.49;55.87
41260;BME280;26993;48.958;9.330;2022-09-09T10:17:36;98088.53;;;22.58;56.70
41260;BME280;26993;48.958;9.330;2022-09-09T10:20:34;98090.34;;;22.72;57.85
41260;BME280;26993;48.958;9.330;2022-09-09T10:23:35;98098.91;;;22.59;58.01
41260;BME280;26993;48.958;9.330;2022-09-09T10:26:37;98090.59;;;22.83;56.28
41260;BME280;26993;48.958;9.330;2022-09-09T10:29:44;98097.94;;;22.76;57.26
41260;BME280;26993;48.958;9.330;2022-09-09T10:32:48;98095.13;;;22.95;55.85
41260;BME280;26993;48.958;9.330;2022-09-09T10:35:44;98091.91;;;22.90;55.29
41260;BME280;26993;48.958;9.330;2022-09-09T10:38:39;98101.22;;;23.26;56.15
41260;BME280;26993;48.958;9.330;2022-09-09T10:41:40;98103.91;;;23.10;55.20
41260;BME280;26993;48.958;9.330;2022-09-09T10:44:43;98107.22;;;22.98;57.05
41260;BME280;26993;48.958;9.330;2022-09-09T10:47:46;98122.25;;;22.96;57.10
41260;BME280;26993;48.958;9.330;2022-09-09T10:50:47;98114.94;;;22.55;54.93
41260;BME280;26993;48.958;9.330;2022-09-09T10:53:39;98109.50;;;22.42;55.96
41260;BME280;26993;48.958;9.330;2022-09-09T10:56:31;98117.56;;;22.23;57.40
41260;BME280;26993;48.958;9.330;2022-09-09T10:59:23;98116.69;;;22.06;57.51
41260;BME280;26993;48.958;9.330;2022-09-09T11:02:16;98117.75;;;22.02;59.06
41260;BME280;26993;48.958;9.330;2022-09-09T11:05:10;98115.91;;;22.04;58.85
41260;BME280;26993;48.958;9.330;2022-09-09T11:08:04;98118.53;;;22.04;59.05
41260;BME280;26993;48.958;9.330;2022-09-09T11:10:59;98121.41;;;22.15;59.08
41260;BME280;26993;48.958;9.330;2022-09-09T11:13:53;98117.13;;;22.14;58.65
41260;BME280;26993;48.958;9.330;2022-09-09T11:16:47;98111.69;;;22.01;58.68
41260;BME280;26993;48.958;9.330;2022-09-09T11:19:39;98120.06;;;21.75;60.08
41260;BME280;26993;48.958;9.330;2022-09-09T11:22:29;98130.06;;;21.68;59.77
41260;BME280;26993;48.958;9.330;2022-09-09T11:25:19;98131.47;;;21.22;66.32
41260;BME280;26993;48.958;9.330;2022-09-09T11:28:32;98126.66;;;20.78;68.19
41260;BME280;26993;48.958;9.330;2022-09-09T11:31:38;98123.56;;;20.32;70.50
41260;BME280;26993;48.958;9.330;2022-09-09T11:34:42;98138.06;;;20.01;70.67
41260;BME280;26993;48.958;9.330;2022-09-09T11:37:55;98141.78;;;19.74;73.11
41260;BME280;26993;48.958;9.330;2022-09-09T11:40:55;98160.91;;;19.56;76.93
41260;BME280;26993;48.958;9.330;2022-09-09T11:43:46;98164.56;;;19.31;77.28
41260;BME280;26993;48.958;9.330;2022-09-09T11:46:36;98181.00;;;19.33;75.59
41260;BME280;26993;48.958;9.330;2022-09-09T11:49:27;98181.84;;;19.13;75.15
41260;BME280;26993;48.958;9.330;2022-09-09T11:52:22;98182.63;;;18.93;77.11
41260;BME280;26993;48.958;9.330;2022-09-09T11:55:20;98184.16;;;18.76;77.29
41260;BME280;26993;48.958;9.330;2022-09-09T11:58:17;98185.47;;;18.64;77.11
41260;BME280;26993;48.958;9.330;2022-09-09T12:01:24;98167.66;;;18.52;77.83
41260;BME280;26993;48.958;9.330;2022-09-09T12:04:30;98169.44;;;18.74;77.29
41260;BME280;26993;48.958;9.330;2022-09-09T12:07:30;98158.44;;;18.87;74.54
41260;BME280;26993;48.958;9.330;2022-09-09T12:10:25;98148.50;;;19.20;74.39
41260;BME280;26993;48.958;9.330;2022-09-09T12:13:18;98139.84;;;19.79;73.17
41260;BME280;26993;48.958;9.330;2022-09-09T12:16:05;98135.09;;;20.27;68.87
41260;BME280;26993;48.958;9.330;2022-09-09T12:18:51;98133.81;;;20.55;68.28
41260;BME280;26993;48.958;9.330;2022-09-09T12:21:44;98132.81;;;20.39;66.75
41260;BME280;26993;48.958;9.330;2022-09-09T12:24:37;98128.56;;;20.55;68.50
41260;BME280;26993;48.958;9.330;2022-09-09T12:27:29;98130.19;;;20.77;66.54
41260;BME280;26993;48.958;9.330;2022-09-09T12:30:18;98124.50;;;21.04;64.67
41260;BME280;26993;48.958;9.330;2022-09-09T12:33:10;98111.66;;;20.99;67.01
41260;BME280;26993;48.958;9.330;2022-09-09T12:36:00;98115.88;;;20.84;65.71
41260;BME280;26993;48.958;9.330;2022-09-09T12:38:48;98119.75;;;20.95;66.35
41260;BME280;26993;48.958;9.330;2022-09-09T12:41:37;98118.44;;;21.21;66.75
41260;BME280;26993;48.958;9.330;2022-09-09T12:44:24;98118.41;;;21.56;65.04
41260;BME280;26993;48.958;9.330;2022-09-09T12:47:13;98115.84;;;21.72;58.56
41260;BME280;26993;48.958;9.330;2022-09-09T12:50:00;98116.84;;;21.18;58.07
41260;BME280;26993;48.958;9.330;2022-09-09T12:52:48;98112.47;;;21.35;60.04
41260;BME280;26993;48.958;9.330;2022-09-09T12:55:38;98113.13;;;21.40;62.22
41260;BME280;26993;48.958;9.330;2022-09-09T12:58:26;98109.56;;;21.59;62.51
41260;BME280;26993;48.958;9.330;2022-09-09T13:01:21;98105.00;;;22.12;63.88
41260;BME280;26993;48.958;9.330;2022-09-09T13:04:19;98106.09;;;21.92;60.86
41260;BME280;26993;48.958;9.330;2022-09-09T13:07:07;98104.16;;;21.95;63.80
41260;BME280;26993;48.958;9.330;2022-09-09T13:09:55;98093.22;;;22.19;62.37
41260;BME280;26993;48.958;9.330;2022-09-09T13:12:42;98079.47;;;22.63;60.00
41260;BME280;26993;48.958;9.330;2022-09-09T13:15:31;98086.16;;;22.53;58.16
41260;BME280;26993;48.958;9.330;2022-09-09T13:18:21;98078.69;;;22.45;58.75
41260;BME280;26993;48.958;9.330;2022-09-09T13:21:08;98085.38;;;22.35;59.36
41260;BME280;26993;48.958;9.330;2022-09-09T13:23:55;98085.59;;;21.98;58.74
41260;BME280;26993;48.958;9.330;2022-09-09T13:26:42;98081.28;;;21.97;59.62
41260;BME280;26993;48.958;9.330;2022-09-09T13:29:30;98080.22;;;22.01;58.32
41260;BME280;26993;48.958;9.330;2022-09-09T13:32:19;98078.06;;;21.92;58.67
41260;BME280;26993;48.958;9.330;2022-09-09T13:35:22;98084.97;;;21.61;60.42
41260;BME280;26993;48.958;9.330;2022-09-09T13:38:09;98085.25;;;21.89;58.51
41260;BME280;26993;48.958;9.330;2022-09-09T13:40:58;98086.19;;;21.71;58.52
41260;BME280;26993;48.958;9.330;2022-09-09T13:43:48;98077.03;;;21.63;60.29
41260;BME280;26993;48.958;9.330;2022-09-09T13:46:36;98077.72;;;21.49;61.40
41260;BME280;26993;48.958;9.330;2022-09-09T13:49:29;98070.69;;;21.67;59.72
41260;BME280;26993;48.958;9.330;2022-09-09T13:52:18;98055.06;;;21.97;61.21
41260;BME280;26993;48.958;9.330;2022-09-09T13:55:08;98050.84;;;22.27;58.71
41260;BME280;26993;48.958;9.330;2022-09-09T13:57:57;98059.03;;;22.37;58.76
41260;BME280;26993;48.958;9.330;2022-09-09T14:00:44;98050.84;;;22.27;58.34
41260;BME280;26993;48.958;9.330;2022-09-09T14:03:31;98045.44;;;22.14;58.42
41260;BME280;26993;48.958;9.330;2022-09-09T14:06:20;98045.25;;;22.01;60.23
41260;BME280;26993;48.958;9.330;2022-09-09T14:09:11;98055.06;;;21.97;59.09
41260;BME280;26993;48.958;9.330;2022-09-09T14:11:57;98050.34;;;22.04;58.10
41260;BME280;26993;48.958;9.330;2022-09-09T14:14:45;98046.94;;;22.02;58.10
41260;BME280;26993;48.958;9.330;2022-09-09T14:17:32;98045.09;;;22.04;57.88
41260;BME280;26993;48.958;9.330;2022-09-09T14:20:19;98053.72;;;22.06;57.67
41260;BME280;26993;48.958;9.330;2022-09-09T14:23:10;98055.75;;;22.01;57.67
41260;BME280;26993;48.958;9.330;2022-09-09T14:25:57;98043.72;;;22.13;57.83
41260;BME280;26993;48.958;9.330;2022-09-09T14:28:43;98039.75;;;22.22;57.11
41260;BME280;26993;48.958;9.330;2022-09-09T14:31:31;98041.63;;;22.19;56.86
41260;BME280;26993;48.958;9.330;2022-09-09T14:34:18;98042.72;;;21.99;58.89
41260;BME280;26993;48.958;9.330;2022-09-09T14:37:04;98047.88;;;22.01;57.63
41260;BME280;26993;48.958;9.330;2022-09-09T14:39:53;98048.41;;;21.92;58.03
41260;BME280;26993;48.958;9.330;2022-09-09T14:42:40;98050.16;;;21.91;58.49
41260;BME280;26993;48.958;9.330;2022-09-09T14:45:28;98044.56;;;21.65;60.41
41260;BME280;26993;48.958;9.330;2022-09-09T14:48:15;98039.91;;;21.86;59.45
41260;BME280;26993;48.958;9.330;2022-09-09T14:51:06;98041.13;;;22.29;57.31
41260;BME280;26993;48.958;9.330;2022-09-09T14:53:58;98036.22;;;22.39;56.27
41260;BME280;26993;48.958;9.330;2022-09-09T14:56:46;98036.88;;;22.73;54.51
41260;BME280;26993;48.958;9.330;2022-09-09T14:59:33;98037.59;;;22.91;53.71